sensor_id;sensor_type;location;lat;lon;timestamp;P1;durP1;ratioP1;P2;durP2;ratioP2
6386;SDS011;3226;42.162;24.756;2022-09-20T00:01:14;7.10;;;6.80;;
6386;SDS011;3226;42.162;24.756;2022-09-20T00:03:48;7.57;;;7.27;;
6386;SDS011;3226;42.162;24.756;2022-09-20T00:06:19;6.27;;;6.00;;
6386;SDS011;3226;42.162;24.756;2022-09-20T00:08:48;5.97;;;5.77;;
6386;SDS011;3226;42.162;24.756;2022-09-20T00:11:17;6.90;;;6.60;;
6386;SDS011;3226;42.162;24.756;2022-09-20T00:13:48;6.97;;;6.67;;
6386;SDS011;3226;42.162;24.756;2022-09-20T00:16:19;7.00;;;6.70;;
6386;SDS011;3226;42.162;24.756;2022-09-20T00:18:50;7.87;;;7.57;;
6386;SDS011;3226;42.162;24.756;2022-09-20T00:21:21;9.00;;;8.60;;
6386;SDS011;3226;42.162;24.756;2022-09-20T00:23:50;7.50;;;7.20;;
6386;SDS011;3226;42.162;24.756;2022-09-20T00:26:19;7.47;;;7.17;;
6386;SDS011;3226;42.162;24.756;2022-09-20T00:28:48;7.50;;;7.20;;
6386;SDS011;3226;42.162;24.756;2022-09-20T00:31:17;8.03;;;7.73;;
6386;SDS011;3226;42.162;24.756;2022-09-20T00:33:46;8.43;;;8.03;;
6386;SDS011;3226;42.162;24.756;2022-09-20T00:36:33;8.00;;;7.70;;
6386;SDS011;3226;42.162;24.756;2022-09-20T00:39:02;7.60;;;7.30;;
6386;SDS011;3226;42.162;24.756;2022-09-20T00:41:31;8.90;;;8.50;;
6386;SDS011;3226;42.162;24.756;2022-09-20T00:44:00;7.90;;;7.60;;
6386;SDS011;3226;42.162;24.756;2022-09-20T00:46:32;7.17;;;6.87;;
6386;SDS011;3226;42.162;24.756;2022-09-20T00:49:05;8.37;;;7.97;;
6386;SDS011;3226;42.162;24.756;2022-09-20T00:51:40;8.63;;;8.23;;
6386;SDS011;3226;42.162;24.756;2022-09-20T00:54:13;8.50;;;8.10;;
6386;SDS011;3226;42.162;24.756;2022-09-20T00:56:46;9.03;;;8.63;;
6386;SDS011;3226;42.162;24.756;2022-09-20T00:59:16;9.00;;;8.60;;
6386;SDS011;3226;42.162;24.756;2022-09-20T01:01:47;7.87;;;7.57;;
6386;SDS011;3226;42.162;24.756;2022-09-20T01:04:19;8.10;;;7.77;;
6386;SDS011;3226;42.162;24.756;2022-09-20T01:06:51;6.73;;;6.43;;
6386;SDS011;3226;42.162;24.756;2022-09-20T01:09:24;6.03;;;5.83;;
6386;SDS011;3226;42.162;24.756;2022-09-20T01:11:52;6.50;;;6.20;;
6386;SDS011;3226;42.162;24.756;2022-09-20T01:14:21;6.33;;;6.03;;
6386;SDS011;3226;42.162;24.756;2022-09-20T01:16:52;6.63;;;6.33;;
6386;SDS011;3226;42.162;24.756;2022-09-20T01:19:26;6.20;;;5.97;;
6386;SDS011;3226;42.162;24.756;2022-09-20T01:22:05;7.63;;;7.33;;
6386;SDS011;3226;42.162;24.756;2022-09-20T01:24:45;6.67;;;6.37;;
6386;SDS011;3226;42.162;24.756;2022-09-20T01:27:20;6.20;;;5.90;;
6386;SDS011;3226;42.162;24.756;2022-09-20T01:30:00;6.10;;;5.83;;
6386;SDS011;3226;42.162;24.756;2022-09-20T01:32:34;6.73;;;6.43;;
6386;SDS011;3226;42.162;24.756;2022-09-20T01:35:12;6.77;;;6.47;;
6386;SDS011;3226;42.162;24.756;2022-09-20T01:37:46;6.60;;;6.30;;
6386;SDS011;3226;42.162;24.756;2022-09-20T01:40:23;6.77;;;6.47;;
6386;SDS011;3226;42.162;24.756;2022-09-20T01:42:58;7.03;;;6.73;;
6386;SDS011;3226;42.162;24.756;2022-09-20T01:45:36;6.80;;;6.50;;
6386;SDS011;3226;42.162;24.756;2022-09-20T01:48:15;6.37;;;6.07;;
6386;SDS011;3226;42.162;24.756;2022-09-20T01:50:59;6.30;;;6.00;;
6386;SDS011;3226;42.162;24.756;2022-09-20T01:53:57;6.33;;;6.03;;
6386;SDS011;3226;42.162;24.756;2022-09-20T02:00:11;6.80;;;6.50;;
6386;SDS011;3226;42.162;24.756;2022-09-20T02:02:47;6.30;;;6.00;;
6386;SDS011;3226;42.162;24.756;2022-09-20T02:08:33;6.30;;;6.00;;
6386;SDS011;3226;42.162;24.756;2022-09-20T02:11:23;6.27;;;5.97;;
6386;SDS011;3226;42.162;24.756;2022-09-20T02:14:12;6.23;;;5.97;;
6386;SDS011;3226;42.162;24.756;2022-09-20T02:17:08;6.47;;;6.17;;
6386;SDS011;3226;42.162;24.756;2022-09-20T02:19:44;5.83;;;5.63;;
6386;SDS011;3226;42.162;24.756;2022-09-20T02:22:23;6.23;;;5.93;;
6386;SDS011;3226;42.162;24.756;2022-09-20T02:25:01;6.93;;;6.63;;
6386;SDS011;3226;42.162;24.756;2022-09-20T02:27:44;6.57;;;6.27;;
6386;SDS011;3226;42.162;24.756;2022-09-20T02:30:23;6.65;;;6.35;;
6386;SDS011;3226;42.162;24.756;2022-09-20T02:33:22;6.70;;;6.40;;
6386;SDS011;3226;42.162;24.756;2022-09-20T02:36:21;6.53;;;6.23;;
6386;SDS011;3226;42.162;24.756;2022-09-20T02:39:02;5.63;;;5.43;;
6386;SDS011;3226;42.162;24.756;2022-09-20T02:41:44;6.47;;;6.17;;
6386;SDS011;3226;42.162;24.756;2022-09-20T02:44:23;5.87;;;5.67;;
6386;SDS011;3226;42.162;24.756;2022-09-20T02:47:05;6.17;;;5.90;;
6386;SDS011;3226;42.162;24.756;2022-09-20T02:49:42;6.27;;;5.97;;
6386;SDS011;3226;42.162;24.756;2022-09-20T02:52:25;6.27;;;5.97;;
6386;SDS011;3226;42.162;24.756;2022-09-20T02:55:01;6.60;;;6.30;;
6386;SDS011;3226;42.162;24.756;2022-09-20T02:57:35;6.63;;;6.33;;
6386;SDS011;3226;42.162;24.756;2022-09-20T03:00:12;5.93;;;5.73;;
6386;SDS011;3226;42.162;24.756;2022-09-20T03:02:46;6.60;;;6.30;;
6386;SDS011;3226;42.162;24.756;2022-09-20T03:05:25;6.20;;;5.97;;
6386;SDS011;3226;42.162;24.756;2022-09-20T03:08:07;6.70;;;6.40;;
6386;SDS011;3226;42.162;24.756;2022-09-20T03:10:44;6.93;;;6.63;;
6386;SDS011;3226;42.162;24.756;2022-09-20T03:13:22;6.27;;;5.97;;
6386;SDS011;3226;42.162;24.756;2022-09-20T03:16:07;6.67;;;6.37;;
6386;SDS011;3226;42.162;24.756;2022-09-20T03:18:41;6.90;;;6.60;;
6386;SDS011;3226;42.162;24.756;2022-09-20T03:21:23;6.07;;;5.80;;
6386;SDS011;3226;42.162;24.756;2022-09-20T03:24:02;6.43;;;6.13;;
6386;SDS011;3226;42.162;24.756;2022-09-20T03:26:43;6.73;;;6.43;;
6386;SDS011;3226;42.162;24.756;2022-09-20T03:29:22;6.00;;;5.80;;
6386;SDS011;3226;42.162;24.756;2022-09-20T03:32:05;5.87;;;5.67;;
6386;SDS011;3226;42.162;24.756;2022-09-20T03:34:48;6.47;;;6.17;;
6386;SDS011;3226;42.162;24.756;2022-09-20T03:37:32;7.03;;;6.73;;
6386;SDS011;3226;42.162;24.756;2022-09-20T03:40:25;6.67;;;6.37;;
6386;SDS011;3226;42.162;24.756;2022-09-20T03:43:12;6.83;;;6.53;;
6386;SDS011;3226;42.162;24.756;2022-09-20T03:45:53;6.70;;;6.40;;
6386;SDS011;3226;42.162;24.756;2022-09-20T03:48:36;6.97;;;6.67;;
6386;SDS011;3226;42.162;24.756;2022-09-20T03:51:27;6.40;;;6.10;;
6386;SDS011;3226;42.162;24.756;2022-09-20T03:57:13;6.40;;;6.13;;
6386;SDS011;3226;42.162;24.756;2022-09-20T03:59:57;6.30;;;6.00;;
6386;SDS011;3226;42.162;24.756;2022-09-20T04:02:37;6.77;;;6.47;;
6386;SDS011;3226;42.162;24.756;2022-09-20T04:05:21;6.73;;;6.43;;
6386;SDS011;3226;42.162;24.756;2022-09-20T04:07:57;7.97;;;7.63;;
6386;SDS011;3226;42.162;24.756;2022-09-20T04:10:40;6.43;;;6.13;;
6386;SDS011;3226;42.162;24.756;2022-09-20T04:13:23;6.57;;;6.27;;
6386;SDS011;3226;42.162;24.756;2022-09-20T04:16:03;6.23;;;5.93;;
6386;SDS011;3226;42.162;24.756;2022-09-20T04:18:42;6.77;;;6.47;;
6386;SDS011;3226;42.162;24.756;2022-09-20T04:21:15;6.63;;;6.33;;
6386;SDS011;3226;42.162;24.756;2022-09-20T04:23:51;6.60;;;6.30;;
6386;SDS011;3226;42.162;24.756;2022-09-20T04:26:27;6.43;;;6.13;;
6386;SDS011;3226;42.162;24.756;2022-09-20T04:28:59;6.37;;;6.07;;
6386;SDS011;3226;42.162;24.756;2022-09-20T04:31:40;7.40;;;7.10;;
6386;SDS011;3226;42.162;24.756;2022-09-20T04:34:21;5.73;;;5.53;;
6386;SDS011;3226;42.162;24.756;2022-09-20T04:37:18;6.80;;;6.50;;
6386;SDS011;3226;42.162;24.756;2022-09-20T04:39:54;6.13;;;5.83;;
6386;SDS011;3226;42.162;24.756;2022-09-20T04:42:35;6.10;;;5.83;;
6386;SDS011;3226;42.162;24.756;2022-09-20T04:45:48;7.13;;;6.83;;
6386;SDS011;3226;42.162;24.756;2022-09-20T04:51:45;7.07;;;6.77;;
6386;SDS011;3226;42.162;24.756;2022-09-20T04:54:54;7.00;;;6.70;;
6386;SDS011;3226;42.162;24.756;2022-09-20T04:58:04;6.50;;;6.20;;
6386;SDS011;3226;42.162;24.756;2022-09-20T05:01:09;6.63;;;6.33;;
6386;SDS011;3226;42.162;24.756;2022-09-20T05:04:06;7.93;;;7.53;;
6386;SDS011;3226;42.162;24.756;2022-09-20T05:07:01;7.80;;;7.43;;
6386;SDS011;3226;42.162;24.756;2022-09-20T05:12:57;7.03;;;6.73;;
6386;SDS011;3226;42.162;24.756;2022-09-20T05:15:40;6.43;;;6.13;;
6386;SDS011;3226;42.162;24.756;2022-09-20T05:18:35;6.67;;;6.37;;
6386;SDS011;3226;42.162;24.756;2022-09-20T05:21:27;8.23;;;7.83;;
6386;SDS011;3226;42.162;24.756;2022-09-20T05:24:15;7.57;;;7.27;;
6386;SDS011;3226;42.162;24.756;2022-09-20T05:26:59;6.90;;;6.60;;
6386;SDS011;3226;42.162;24.756;2022-09-20T05:29:40;6.87;;;6.57;;
6386;SDS011;3226;42.162;24.756;2022-09-20T05:32:18;7.37;;;6.97;;
6386;SDS011;3226;42.162;24.756;2022-09-20T05:34:53;6.90;;;6.60;;
6386;SDS011;3226;42.162;24.756;2022-09-20T05:37:32;7.23;;;6.93;;
6386;SDS011;3226;42.162;24.756;2022-09-20T05:40:12;5.73;;;5.53;;
6386;SDS011;3226;42.162;24.756;2022-09-20T05:42:50;6.30;;;6.00;;
6386;SDS011;3226;42.162;24.756;2022-09-20T05:45:32;6.83;;;6.53;;
6386;SDS011;3226;42.162;24.756;2022-09-20T05:48:16;6.30;;;6.00;;
6386;SDS011;3226;42.162;24.756;2022-09-20T05:50:54;6.93;;;6.63;;
6386;SDS011;3226;42.162;24.756;2022-09-20T05:56:32;6.50;;;6.20;;
6386;SDS011;3226;42.162;24.756;2022-09-20T05:59:14;7.30;;;7.00;;
6386;SDS011;3226;42.162;24.756;2022-09-20T06:02:14;5.97;;;5.77;;
6386;SDS011;3226;42.162;24.756;2022-09-20T06:04:51;6.13;;;5.87;;
6386;SDS011;3226;42.162;24.756;2022-09-20T06:07:34;7.13;;;6.83;;
6386;SDS011;3226;42.162;24.756;2022-09-20T06:10:29;7.00;;;6.70;;
6386;SDS011;3226;42.162;24.756;2022-09-20T06:13:12;6.50;;;6.20;;
6386;SDS011;3226;42.162;24.756;2022-09-20T06:15:53;7.20;;;6.90;;
6386;SDS011;3226;42.162;24.756;2022-09-20T06:18:26;6.70;;;6.40;;
6386;SDS011;3226;42.162;24.756;2022-09-20T06:21:03;6.47;;;6.17;;
6386;SDS011;3226;42.162;24.756;2022-09-20T06:23:41;6.93;;;6.63;;
6386;SDS011;3226;42.162;24.756;2022-09-20T06:26:13;5.97;;;5.77;;
6386;SDS011;3226;42.162;24.756;2022-09-20T06:28:44;6.27;;;5.97;;
6386;SDS011;3226;42.162;24.756;2022-09-20T06:31:15;7.13;;;6.83;;
6386;SDS011;3226;42.162;24.756;2022-09-20T06:33:45;6.80;;;6.50;;
6386;SDS011;3226;42.162;24.756;2022-09-20T06:36:19;6.43;;;6.13;;
6386;SDS011;3226;42.162;24.756;2022-09-20T06:39:13;7.20;;;6.90;;
6386;SDS011;3226;42.162;24.756;2022-09-20T06:42:03;6.90;;;6.60;;
6386;SDS011;3226;42.162;24.756;2022-09-20T06:44:34;6.80;;;6.50;;
6386;SDS011;3226;42.162;24.756;2022-09-20T06:47:07;6.73;;;6.43;;
6386;SDS011;3226;42.162;24.756;2022-09-20T06:49:36;6.57;;;6.27;;
6386;SDS011;3226;42.162;24.756;2022-09-20T06:52:05;6.50;;;6.20;;
6386;SDS011;3226;42.162;24.756;2022-09-20T06:54:37;6.27;;;5.97;;
6386;SDS011;3226;42.162;24.756;2022-09-20T06:57:08;7.10;;;6.80;;
6386;SDS011;3226;42.162;24.756;2022-09-20T06:59:38;6.07;;;5.87;;
6386;SDS011;3226;42.162;24.756;2022-09-20T07:02:06;6.53;;;6.23;;
6386;SDS011;3226;42.162;24.756;2022-09-20T07:04:34;6.43;;;6.13;;
6386;SDS011;3226;42.162;24.756;2022-09-20T07:07:03;6.50;;;6.20;;
6386;SDS011;3226;42.162;24.756;2022-09-20T07:09:35;6.00;;;5.80;;
6386;SDS011;3226;42.162;24.756;2022-09-20T07:12:04;6.13;;;5.90;;
6386;SDS011;3226;42.162;24.756;2022-09-20T07:14:37;6.97;;;6.67;;
6386;SDS011;3226;42.162;24.756;2022-09-20T07:17:07;7.07;;;6.77;;
6386;SDS011;3226;42.162;24.756;2022-09-20T07:19:35;8.07;;;7.73;;
6386;SDS011;3226;42.162;24.756;2022-09-20T07:22:03;7.90;;;7.60;;
6386;SDS011;3226;42.162;24.756;2022-09-20T07:24:31;7.47;;;7.17;;
6386;SDS011;3226;42.162;24.756;2022-09-20T07:27:02;6.70;;;6.40;;
6386;SDS011;3226;42.162;24.756;2022-09-20T07:29:32;7.80;;;7.50;;
6386;SDS011;3226;42.162;24.756;2022-09-20T07:32:01;6.27;;;5.97;;
6386;SDS011;3226;42.162;24.756;2022-09-20T07:34:29;6.33;;;6.03;;
6386;SDS011;3226;42.162;24.756;2022-09-20T07:36:57;7.07;;;6.77;;
6386;SDS011;3226;42.162;24.756;2022-09-20T07:39:26;6.97;;;6.67;;
6386;SDS011;3226;42.162;24.756;2022-09-20T07:41:54;6.60;;;6.30;;
6386;SDS011;3226;42.162;24.756;2022-09-20T07:44:23;7.10;;;6.80;;
6386;SDS011;3226;42.162;24.756;2022-09-20T07:46:54;7.63;;;7.33;;
6386;SDS011;3226;42.162;24.756;2022-09-20T07:49:24;6.60;;;6.30;;
6386;SDS011;3226;42.162;24.756;2022-09-20T07:51:55;7.90;;;7.60;;
6386;SDS011;3226;42.162;24.756;2022-09-20T07:54:23;6.93;;;6.63;;
6386;SDS011;3226;42.162;24.756;2022-09-20T07:56:52;7.13;;;6.83;;
6386;SDS011;3226;42.162;24.756;2022-09-20T07:59:21;7.43;;;7.13;;
6386;SDS011;3226;42.162;24.756;2022-09-20T08:01:51;7.43;;;7.13;;
6386;SDS011;3226;42.162;24.756;2022-09-20T08:04:19;10.23;;;9.73;;
6386;SDS011;3226;42.162;24.756;2022-09-20T08:06:47;7.77;;;7.47;;
6386;SDS011;3226;42.162;24.756;2022-09-20T08:09:15;7.77;;;7.47;;
6386;SDS011;3226;42.162;24.756;2022-09-20T08:11:44;7.53;;;7.23;;
6386;SDS011;3226;42.162;24.756;2022-09-20T08:14:13;6.77;;;6.47;;
6386;SDS011;3226;42.162;24.756;2022-09-20T08:16:43;7.37;;;7.07;;
6386;SDS011;3226;42.162;24.756;2022-09-20T08:19:15;8.03;;;7.73;;
6386;SDS011;3226;42.162;24.756;2022-09-20T08:21:46;8.67;;;8.27;;
6386;SDS011;3226;42.162;24.756;2022-09-20T08:24:15;6.95;;;6.65;;
6386;SDS011;3226;42.162;24.756;2022-09-20T08:26:44;8.87;;;8.47;;
6386;SDS011;3226;42.162;24.756;2022-09-20T08:29:13;7.47;;;7.17;;
6386;SDS011;3226;42.162;24.756;2022-09-20T08:31:42;8.70;;;8.30;;
6386;SDS011;3226;42.162;24.756;2022-09-20T08:34:12;7.63;;;7.33;;
6386;SDS011;3226;42.162;24.756;2022-09-20T08:36:43;8.43;;;8.03;;
6386;SDS011;3226;42.162;24.756;2022-09-20T08:39:13;7.43;;;7.13;;
6386;SDS011;3226;42.162;24.756;2022-09-20T08:42:05;7.37;;;7.07;;
6386;SDS011;3226;42.162;24.756;2022-09-20T08:44:42;8.23;;;7.87;;
6386;SDS011;3226;42.162;24.756;2022-09-20T08:47:24;7.77;;;7.47;;
6386;SDS011;3226;42.162;24.756;2022-09-20T08:49:54;7.67;;;7.37;;
6386;SDS011;3226;42.162;24.756;2022-09-20T08:52:26;9.23;;;8.83;;
6386;SDS011;3226;42.162;24.756;2022-09-20T08:55:02;7.43;;;7.13;;
6386;SDS011;3226;42.162;24.756;2022-09-20T08:57:40;8.40;;;8.00;;
6386;SDS011;3226;42.162;24.756;2022-09-20T09:00:10;8.70;;;8.30;;
6386;SDS011;3226;42.162;24.756;2022-09-20T09:02:44;7.60;;;7.30;;
6386;SDS011;3226;42.162;24.756;2022-09-20T09:05:25;8.70;;;8.30;;
6386;SDS011;3226;42.162;24.756;2022-09-20T09:08:01;9.30;;;8.90;;
6386;SDS011;3226;42.162;24.756;2022-09-20T09:10:34;7.97;;;7.67;;
6386;SDS011;3226;42.162;24.756;2022-09-20T09:13:09;8.17;;;7.80;;
6386;SDS011;3226;42.162;24.756;2022-09-20T09:15:44;8.50;;;8.10;;
6386;SDS011;3226;42.162;24.756;2022-09-20T09:18:19;8.33;;;7.93;;
6386;SDS011;3226;42.162;24.756;2022-09-20T09:23:24;8.17;;;7.77;;
6386;SDS011;3226;42.162;24.756;2022-09-20T09:25:53;13.25;;;12.65;;
6386;SDS011;3226;42.162;24.756;2022-09-20T09:28:23;8.17;;;7.77;;
6386;SDS011;3226;42.162;24.756;2022-09-20T09:30:54;8.63;;;8.23;;
6386;SDS011;3226;42.162;24.756;2022-09-20T09:33:44;8.70;;;8.30;;
6386;SDS011;3226;42.162;24.756;2022-09-20T09:36:15;9.13;;;8.73;;
6386;SDS011;3226;42.162;24.756;2022-09-20T09:38:49;9.70;;;9.30;;
6386;SDS011;3226;42.162;24.756;2022-09-20T09:41:37;9.27;;;8.87;;
6386;SDS011;3226;42.162;24.756;2022-09-20T09:44:06;8.30;;;7.90;;
6386;SDS011;3226;42.162;24.756;2022-09-20T09:46:46;8.87;;;8.47;;
6386;SDS011;3226;42.162;24.756;2022-09-20T09:49:16;8.13;;;7.77;;
6386;SDS011;3226;42.162;24.756;2022-09-20T09:52:03;7.77;;;7.47;;
6386;SDS011;3226;42.162;24.756;2022-09-20T09:54:40;8.33;;;7.93;;
6386;SDS011;3226;42.162;24.756;2022-09-20T09:57:21;8.33;;;7.93;;
6386;SDS011;3226;42.162;24.756;2022-09-20T10:00:04;7.80;;;7.50;;
6386;SDS011;3226;42.162;24.756;2022-09-20T10:02:51;8.27;;;7.87;;
6386;SDS011;3226;42.162;24.756;2022-09-20T10:05:42;8.23;;;7.83;;
6386;SDS011;3226;42.162;24.756;2022-09-20T10:08:22;7.80;;;7.47;;
6386;SDS011;3226;42.162;24.756;2022-09-20T10:11:01;8.97;;;8.57;;
6386;SDS011;3226;42.162;24.756;2022-09-20T10:13:40;8.50;;;8.10;;
6386;SDS011;3226;42.162;24.756;2022-09-20T10:16:20;9.10;;;8.70;;
6386;SDS011;3226;42.162;24.756;2022-09-20T10:18:59;9.67;;;9.27;;
6386;SDS011;3226;42.162;24.756;2022-09-20T10:21:39;9.27;;;8.87;;
6386;SDS011;3226;42.162;24.756;2022-09-20T10:24:24;9.43;;;9.03;;
6386;SDS011;3226;42.162;24.756;2022-09-20T10:27:04;9.40;;;9.00;;
6386;SDS011;3226;42.162;24.756;2022-09-20T10:29:44;8.33;;;7.93;;
6386;SDS011;3226;42.162;24.756;2022-09-20T10:32:28;8.73;;;8.33;;
6386;SDS011;3226;42.162;24.756;2022-09-20T10:35:13;8.27;;;7.87;;
6386;SDS011;3226;42.162;24.756;2022-09-20T10:37:54;8.80;;;8.40;;
6386;SDS011;3226;42.162;24.756;2022-09-20T10:40:33;7.97;;;7.67;;
6386;SDS011;3226;42.162;24.756;2022-09-20T10:43:39;7.97;;;7.63;;
6386;SDS011;3226;42.162;24.756;2022-09-20T10:46:17;8.33;;;7.93;;
6386;SDS011;3226;42.162;24.756;2022-09-20T10:49:01;9.10;;;8.70;;
6386;SDS011;3226;42.162;24.756;2022-09-20T10:51:35;8.80;;;8.40;;
6386;SDS011;3226;42.162;24.756;2022-09-20T10:54:13;7.87;;;7.57;;
6386;SDS011;3226;42.162;24.756;2022-09-20T10:56:53;8.80;;;8.40;;
6386;SDS011;3226;42.162;24.756;2022-09-20T10:59:36;9.17;;;8.77;;
6386;SDS011;3226;42.162;24.756;2022-09-20T11:02:16;9.93;;;9.43;;
6386;SDS011;3226;42.162;24.756;2022-09-20T11:05:08;8.53;;;8.13;;
6386;SDS011;3226;42.162;24.756;2022-09-20T11:07:50;8.20;;;7.80;;
6386;SDS011;3226;42.162;24.756;2022-09-20T11:10:26;7.50;;;7.20;;
6386;SDS011;3226;42.162;24.756;2022-09-20T11:12:59;7.47;;;7.17;;
6386;SDS011;3226;42.162;24.756;2022-09-20T11:15:35;8.10;;;7.70;;
6386;SDS011;3226;42.162;24.756;2022-09-20T11:18:10;6.70;;;6.40;;
6386;SDS011;3226;42.162;24.756;2022-09-20T11:20:50;7.60;;;7.30;;
6386;SDS011;3226;42.162;24.756;2022-09-20T11:23:26;7.73;;;7.43;;
6386;SDS011;3226;42.162;24.756;2022-09-20T11:26:10;7.57;;;7.27;;
6386;SDS011;3226;42.162;24.756;2022-09-20T11:28:45;7.67;;;7.37;;
6386;SDS011;3226;42.162;24.756;2022-09-20T11:31:18;7.70;;;7.40;;
6386;SDS011;3226;42.162;24.756;2022-09-20T11:33:53;8.33;;;7.97;;
6386;SDS011;3226;42.162;24.756;2022-09-20T11:36:27;8.30;;;7.97;;
6386;SDS011;3226;42.162;24.756;2022-09-20T11:38:59;8.70;;;8.30;;
6386;SDS011;3226;42.162;24.756;2022-09-20T11:41:32;7.63;;;7.33;;
6386;SDS011;3226;42.162;24.756;2022-09-20T11:44:03;8.07;;;7.73;;
6386;SDS011;3226;42.162;24.756;2022-09-20T11:46:37;7.47;;;7.17;;
6386;SDS011;3226;42.162;24.756;2022-09-20T11:49:11;7.60;;;7.30;;
6386;SDS011;3226;42.162;24.756;2022-09-20T11:57:58;7.93;;;7.60;;
6386;SDS011;3226;42.162;24.756;2022-09-20T12:00:28;7.77;;;7.47;;
6386;SDS011;3226;42.162;24.756;2022-09-20T12:03:00;7.40;;;7.10;;
6386;SDS011;3226;42.162;24.756;2022-09-20T12:05:33;7.33;;;7.03;;
6386;SDS011;3226;42.162;24.756;2022-09-20T12:08:05;7.87;;;7.57;;
6386;SDS011;3226;42.162;24.756;2022-09-20T12:10:44;6.83;;;6.53;;
6386;SDS011;3226;42.162;24.756;2022-09-20T12:13:24;7.67;;;7.37;;
6386;SDS011;3226;42.162;24.756;2022-09-20T12:15:57;7.77;;;7.47;;
6386;SDS011;3226;42.162;24.756;2022-09-20T12:18:34;8.17;;;7.77;;
6386;SDS011;3226;42.162;24.756;2022-09-20T12:21:10;7.63;;;7.33;;
6386;SDS011;3226;42.162;24.756;2022-09-20T12:26:47;7.57;;;7.27;;
6386;SDS011;3226;42.162;24.756;2022-09-20T12:32:46;7.50;;;7.20;;
6386;SDS011;3226;42.162;24.756;2022-09-20T12:38:26;8.10;;;7.70;;
6386;SDS011;3226;42.162;24.756;2022-09-20T12:41:00;8.20;;;7.80;;
6386;SDS011;3226;42.162;24.756;2022-09-20T12:43:30;8.00;;;7.70;;
6386;SDS011;3226;42.162;24.756;2022-09-20T12:46:00;8.87;;;8.47;;
6386;SDS011;3226;42.162;24.756;2022-09-20T12:48:34;7.60;;;7.30;;
6386;SDS011;3226;42.162;24.756;2022-09-20T12:51:04;7.43;;;7.13;;
6386;SDS011;3226;42.162;24.756;2022-09-20T12:54:04;7.57;;;7.27;;
6386;SDS011;3226;42.162;24.756;2022-09-20T12:56:34;8.37;;;7.97;;
6386;SDS011;3226;42.162;24.756;2022-09-20T12:59:04;7.57;;;7.27;;
6386;SDS011;3226;42.162;24.756;2022-09-20T13:01:47;7.67;;;7.37;;
6386;SDS011;3226;42.162;24.756;2022-09-20T13:10:30;6.33;;;6.03;;
6386;SDS011;3226;42.162;24.756;2022-09-20T13:15:57;7.50;;;7.20;;
6386;SDS011;3226;42.162;24.756;2022-09-20T13:18:31;7.13;;;6.83;;
6386;SDS011;3226;42.162;24.756;2022-09-20T13:21:01;7.67;;;7.37;;
6386;SDS011;3226;42.162;24.756;2022-09-20T13:23:35;7.53;;;7.23;;
6386;SDS011;3226;42.162;24.756;2022-09-20T13:26:14;8.43;;;8.03;;
6386;SDS011;3226;42.162;24.756;2022-09-20T13:28:48;7.97;;;7.67;;
6386;SDS011;3226;42.162;24.756;2022-09-20T13:31:29;7.40;;;7.10;;
6386;SDS011;3226;42.162;24.756;2022-09-20T13:34:12;7.17;;;6.87;;
6386;SDS011;3226;42.162;24.756;2022-09-20T13:36:48;7.90;;;7.60;;
6386;SDS011;3226;42.162;24.756;2022-09-20T13:39:22;8.80;;;8.40;;
6386;SDS011;3226;42.162;24.756;2022-09-20T13:41:59;8.50;;;8.10;;
6386;SDS011;3226;42.162;24.756;2022-09-20T13:44:32;8.50;;;8.10;;
6386;SDS011;3226;42.162;24.756;2022-09-20T13:47:18;8.50;;;8.10;;
6386;SDS011;3226;42.162;24.756;2022-09-20T13:49:49;8.67;;;8.27;;
6386;SDS011;3226;42.162;24.756;2022-09-20T13:52:24;9.53;;;9.13;;
6386;SDS011;3226;42.162;24.756;2022-09-20T13:54:53;9.47;;;9.07;;
6386;SDS011;3226;42.162;24.756;2022-09-20T13:57:24;10.23;;;9.73;;
6386;SDS011;3226;42.162;24.756;2022-09-20T13:59:54;9.53;;;9.13;;
6386;SDS011;3226;42.162;24.756;2022-09-20T14:02:25;9.47;;;9.07;;
6386;SDS011;3226;42.162;24.756;2022-09-20T14:04:56;9.07;;;8.67;;
6386;SDS011;3226;42.162;24.756;2022-09-20T14:07:27;8.63;;;8.23;;
6386;SDS011;3226;42.162;24.756;2022-09-20T14:09:56;9.37;;;8.97;;
6386;SDS011;3226;42.162;24.756;2022-09-20T14:12:27;9.30;;;8.90;;
6386;SDS011;3226;42.162;24.756;2022-09-20T14:14:55;8.87;;;8.47;;
6386;SDS011;3226;42.162;24.756;2022-09-20T14:17:24;7.57;;;7.27;;
6386;SDS011;3226;42.162;24.756;2022-09-20T14:19:58;8.80;;;8.40;;
6386;SDS011;3226;42.162;24.756;2022-09-20T14:22:27;8.93;;;8.53;;
6386;SDS011;3226;42.162;24.756;2022-09-20T14:24:57;7.07;;;6.77;;
6386;SDS011;3226;42.162;24.756;2022-09-20T14:27:28;9.10;;;8.70;;
6386;SDS011;3226;42.162;24.756;2022-09-20T14:29:57;8.00;;;7.67;;
6386;SDS011;3226;42.162;24.756;2022-09-20T14:32:32;8.10;;;7.70;;
6386;SDS011;3226;42.162;24.756;2022-09-20T14:35:05;7.57;;;7.27;;
6386;SDS011;3226;42.162;24.756;2022-09-20T14:37:41;7.93;;;7.57;;
6386;SDS011;3226;42.162;24.756;2022-09-20T14:40:22;8.20;;;7.80;;
6386;SDS011;3226;42.162;24.756;2022-09-20T14:42:56;7.60;;;7.30;;
6386;SDS011;3226;42.162;24.756;2022-09-20T14:45:28;7.70;;;7.40;;
6386;SDS011;3226;42.162;24.756;2022-09-20T14:47:59;8.17;;;7.77;;
6386;SDS011;3226;42.162;24.756;2022-09-20T14:50:36;8.10;;;7.70;;
6386;SDS011;3226;42.162;24.756;2022-09-20T14:53:17;8.40;;;8.00;;
6386;SDS011;3226;42.162;24.756;2022-09-20T15:01:32;8.90;;;8.50;;
6386;SDS011;3226;42.162;24.756;2022-09-20T15:04:06;8.83;;;8.43;;
6386;SDS011;3226;42.162;24.756;2022-09-20T15:06:36;8.03;;;7.67;;
6386;SDS011;3226;42.162;24.756;2022-09-20T15:09:05;8.17;;;7.77;;
6386;SDS011;3226;42.162;24.756;2022-09-20T15:11:35;7.60;;;7.30;;
6386;SDS011;3226;42.162;24.756;2022-09-20T15:14:06;7.23;;;6.93;;
6386;SDS011;3226;42.162;24.756;2022-09-20T15:16:34;8.47;;;8.07;;
6386;SDS011;3226;42.162;24.756;2022-09-20T15:19:02;9.03;;;8.63;;
6386;SDS011;3226;42.162;24.756;2022-09-20T15:21:31;8.67;;;8.27;;
6386;SDS011;3226;42.162;24.756;2022-09-20T15:23:59;8.30;;;7.90;;
6386;SDS011;3226;42.162;24.756;2022-09-20T15:26:28;7.70;;;7.40;;
6386;SDS011;3226;42.162;24.756;2022-09-20T15:28:59;8.33;;;7.93;;
6386;SDS011;3226;42.162;24.756;2022-09-20T15:31:29;7.85;;;7.55;;
6386;SDS011;3226;42.162;24.756;2022-09-20T15:33:57;9.07;;;8.67;;
6386;SDS011;3226;42.162;24.756;2022-09-20T15:36:25;7.77;;;7.47;;
6386;SDS011;3226;42.162;24.756;2022-09-20T15:38:57;7.80;;;7.50;;
6386;SDS011;3226;42.162;24.756;2022-09-20T15:41:25;8.03;;;7.73;;
6386;SDS011;3226;42.162;24.756;2022-09-20T15:43:56;9.03;;;8.63;;
6386;SDS011;3226;42.162;24.756;2022-09-20T15:46:25;8.80;;;8.40;;
6386;SDS011;3226;42.162;24.756;2022-09-20T15:48:54;8.93;;;8.53;;
6386;SDS011;3226;42.162;24.756;2022-09-20T15:51:23;8.63;;;8.23;;
6386;SDS011;3226;42.162;24.756;2022-09-20T15:53:53;8.83;;;8.43;;
6386;SDS011;3226;42.162;24.756;2022-09-20T15:56:23;9.67;;;9.27;;
6386;SDS011;3226;42.162;24.756;2022-09-20T15:58:54;9.97;;;9.53;;
6386;SDS011;3226;42.162;24.756;2022-09-20T16:01:26;9.33;;;8.93;;
6386;SDS011;3226;42.162;24.756;2022-09-20T16:03:57;7.93;;;7.63;;
6386;SDS011;3226;42.162;24.756;2022-09-20T16:06:26;9.30;;;8.90;;
6386;SDS011;3226;42.162;24.756;2022-09-20T16:08:54;7.97;;;7.63;;
6386;SDS011;3226;42.162;24.756;2022-09-20T16:11:22;9.03;;;8.63;;
6386;SDS011;3226;42.162;24.756;2022-09-20T16:13:53;9.70;;;9.30;;
6386;SDS011;3226;42.162;24.756;2022-09-20T16:16:23;7.83;;;7.53;;
6386;SDS011;3226;42.162;24.756;2022-09-20T16:18:52;8.40;;;8.00;;
6386;SDS011;3226;42.162;24.756;2022-09-20T16:21:39;7.73;;;7.43;;
6386;SDS011;3226;42.162;24.756;2022-09-20T16:24:08;8.70;;;8.30;;
6386;SDS011;3226;42.162;24.756;2022-09-20T16:26:38;8.23;;;7.83;;
6386;SDS011;3226;42.162;24.756;2022-09-20T16:29:07;7.90;;;7.60;;
6386;SDS011;3226;42.162;24.756;2022-09-20T16:31:37;8.00;;;7.70;;
6386;SDS011;3226;42.162;24.756;2022-09-20T16:34:10;7.80;;;7.50;;
6386;SDS011;3226;42.162;24.756;2022-09-20T16:36:41;8.50;;;8.10;;
6386;SDS011;3226;42.162;24.756;2022-09-20T16:39:11;7.23;;;6.93;;
6386;SDS011;3226;42.162;24.756;2022-09-20T16:41:40;8.70;;;8.30;;
6386;SDS011;3226;42.162;24.756;2022-09-20T16:44:09;8.30;;;7.93;;
6386;SDS011;3226;42.162;24.756;2022-09-20T16:46:39;8.40;;;8.00;;